Pagina principală
METAR-TAF:

METAR-TAF

Aeroporturi :

Rivas, Nicaragua

Latitudine: 11-25N, longitudine: 085-50W, elevație: 53 m

Observații meteo curente

Raportul a fost făcut în urmă cu 1 oră și 1 de minute, la 15:00 UTC
Vânt 6 kt de la Nord
Temperatură 28°C
Umiditate 74%
Presiune 1015 hPa
Vizibilitate de 10 km sau mai mult
Nori puțini la o înălțime de 1500 picior

METAR: MNRS 241500Z 36006KT 9999 FEW015 28/23 Q1015

Ora: 10:01 (16:01 UTC)


TAF: lipsă

Observații și prognoze meteo pentru peste 4.000 de aeroporturi (rapoarte METAR și TAF).

Stațiile disponibile sunt reprezentate pe hartă prin puncte galbene și roșii.

Țineți indicatorul mouse-ului pe punctul dorit pentru a vedea denumirea stației.

Apoi, faceți clic pentru a vedea observațiile și prognozele meteorologice.

Pentru a schimba harta: Pentru mărire, faceți clic pe butoanele verzi cu cruce neagră; pentru micșorare, pe butonul verde cu o liniuță; pentru hărți învecinate, pe săgețile verzi.


METAR-TAF: